sensor_id;sensor_type;location;lat;lon;timestamp;temperature;humidity
1355;DHT22;671;48.972;9.276;2023-08-12T00:01:22;20.40;99.90
1355;DHT22;671;48.972;9.276;2023-08-12T00:03:51;20.40;99.90
1355;DHT22;671;48.972;9.276;2023-08-12T00:06:17;20.40;99.90
1355;DHT22;671;48.972;9.276;2023-08-12T00:08:44;20.40;99.90
1355;DHT22;671;48.972;9.276;2023-08-12T00:11:10;20.30;99.90
1355;DHT22;671;48.972;9.276;2023-08-12T00:13:37;20.30;99.90
1355;DHT22;671;48.972;9.276;2023-08-12T00:16:04;20.30;99.90
1355;DHT22;671;48.972;9.276;2023-08-12T00:18:30;20.30;99.90
1355;DHT22;671;48.972;9.276;2023-08-12T00:21:09;20.30;99.90
1355;DHT22;671;48.972;9.276;2023-08-12T00:23:40;20.20;99.90
1355;DHT22;671;48.972;9.276;2023-08-12T00:26:08;20.20;99.90
1355;DHT22;671;48.972;9.276;2023-08-12T00:28:34;20.20;99.90
1355;DHT22;671;48.972;9.276;2023-08-12T00:31:01;20.20;99.90
1355;DHT22;671;48.972;9.276;2023-08-12T00:33:28;20.20;99.90
1355;DHT22;671;48.972;9.276;2023-08-12T00:35:54;20.20;99.90
1355;DHT22;671;48.972;9.276;2023-08-12T00:38:21;20.20;99.90
1355;DHT22;671;48.972;9.276;2023-08-12T00:40:48;20.20;99.90
1355;DHT22;671;48.972;9.276;2023-08-12T00:43:14;20.20;99.90
1355;DHT22;671;48.972;9.276;2023-08-12T00:45:41;20.10;99.90
1355;DHT22;671;48.972;9.276;2023-08-12T00:48:08;20.10;99.90
1355;DHT22;671;48.972;9.276;2023-08-12T00:50:36;20.00;99.90
1355;DHT22;671;48.972;9.276;2023-08-12T00:53:04;20.00;99.90
1355;DHT22;671;48.972;9.276;2023-08-12T00:55:34;19.90;99.90
1355;DHT22;671;48.972;9.276;2023-08-12T00:58:02;19.90;99.90
1355;DHT22;671;48.972;9.276;2023-08-12T01:00:28;19.80;99.90
1355;DHT22;671;48.972;9.276;2023-08-12T01:02:56;19.80;99.90
1355;DHT22;671;48.972;9.276;2023-08-12T01:05:22;19.80;99.90
1355;DHT22;671;48.972;9.276;2023-08-12T01:07:49;19.80;99.90
1355;DHT22;671;48.972;9.276;2023-08-12T01:10:16;19.70;99.90
1355;DHT22;671;48.972;9.276;2023-08-12T01:13:10;19.70;99.90
1355;DHT22;671;48.972;9.276;2023-08-12T01:15:40;19.60;99.90
1355;DHT22;671;48.972;9.276;2023-08-12T01:18:07;19.60;99.90
1355;DHT22;671;48.972;9.276;2023-08-12T01:20:34;19.60;99.90
1355;DHT22;671;48.972;9.276;2023-08-12T01:23:10;19.60;99.90
1355;DHT22;671;48.972;9.276;2023-08-12T01:25:37;19.60;99.90
1355;DHT22;671;48.972;9.276;2023-08-12T01:28:05;19.60;99.90
1355;DHT22;671;48.972;9.276;2023-08-12T01:30:34;19.60;99.90
1355;DHT22;671;48.972;9.276;2023-08-12T01:33:09;19.60;99.90
1355;DHT22;671;48.972;9.276;2023-08-12T01:35:40;19.60;99.90
1355;DHT22;671;48.972;9.276;2023-08-12T01:38:08;19.50;99.90
1355;DHT22;671;48.972;9.276;2023-08-12T01:40:38;19.50;99.90
1355;DHT22;671;48.972;9.276;2023-08-12T01:43:05;19.50;99.90
1355;DHT22;671;48.972;9.276;2023-08-12T01:45:33;19.50;99.90
1355;DHT22;671;48.972;9.276;2023-08-12T01:48:00;19.50;99.90
1355;DHT22;671;48.972;9.276;2023-08-12T01:50:27;19.50;99.90
1355;DHT22;671;48.972;9.276;2023-08-12T01:52:53;19.60;99.90
1355;DHT22;671;48.972;9.276;2023-08-12T01:55:20;19.60;99.90
1355;DHT22;671;48.972;9.276;2023-08-12T01:57:46;19.60;99.90
1355;DHT22;671;48.972;9.276;2023-08-12T02:00:13;19.60;99.90
1355;DHT22;671;48.972;9.276;2023-08-12T02:02:40;19.60;99.90
1355;DHT22;671;48.972;9.276;2023-08-12T02:05:06;19.60;99.90
1355;DHT22;671;48.972;9.276;2023-08-12T02:07:33;19.60;99.90
1355;DHT22;671;48.972;9.276;2023-08-12T02:09:59;19.60;99.90
1355;DHT22;671;48.972;9.276;2023-08-12T02:12:26;19.60;99.90
1355;DHT22;671;48.972;9.276;2023-08-12T02:14:52;19.60;99.90
1355;DHT22;671;48.972;9.276;2023-08-12T02:17:19;19.60;99.90
1355;DHT22;671;48.972;9.276;2023-08-12T02:19:45;19.60;99.90
1355;DHT22;671;48.972;9.276;2023-08-12T02:22:12;19.60;99.90
1355;DHT22;671;48.972;9.276;2023-08-12T02:24:38;19.50;99.90
1355;DHT22;671;48.972;9.276;2023-08-12T02:27:05;19.60;99.90
1355;DHT22;671;48.972;9.276;2023-08-12T02:29:31;19.60;99.90
1355;DHT22;671;48.972;9.276;2023-08-12T02:31:57;19.50;99.90
1355;DHT22;671;48.972;9.276;2023-08-12T02:34:24;19.50;99.90
1355;DHT22;671;48.972;9.276;2023-08-12T02:36:50;19.60;99.90
1355;DHT22;671;48.972;9.276;2023-08-12T02:39:17;19.60;99.90
1355;DHT22;671;48.972;9.276;2023-08-12T02:41:43;19.60;99.90
1355;DHT22;671;48.972;9.276;2023-08-12T02:44:10;19.60;99.90
1355;DHT22;671;48.972;9.276;2023-08-12T02:46:36;19.60;99.90
1355;DHT22;671;48.972;9.276;2023-08-12T02:49:03;19.70;99.90
1355;DHT22;671;48.972;9.276;2023-08-12T02:51:29;19.70;99.90
1355;DHT22;671;48.972;9.276;2023-08-12T02:53:56;19.70;99.90
1355;DHT22;671;48.972;9.276;2023-08-12T02:56:22;19.70;99.90
1355;DHT22;671;48.972;9.276;2023-08-12T02:58:49;19.70;99.90
1355;DHT22;671;48.972;9.276;2023-08-12T03:01:15;19.80;99.90
1355;DHT22;671;48.972;9.276;2023-08-12T03:03:42;19.80;99.90
1355;DHT22;671;48.972;9.276;2023-08-12T03:06:08;19.80;99.90
1355;DHT22;671;48.972;9.276;2023-08-12T03:08:35;19.80;99.90
1355;DHT22;671;48.972;9.276;2023-08-12T03:11:02;19.80;99.90
1355;DHT22;671;48.972;9.276;2023-08-12T03:13:29;19.80;99.90
1355;DHT22;671;48.972;9.276;2023-08-12T03:15:56;19.80;99.90
1355;DHT22;671;48.972;9.276;2023-08-12T03:18:22;19.80;99.90
1355;DHT22;671;48.972;9.276;2023-08-12T03:20:49;19.80;99.90
1355;DHT22;671;48.972;9.276;2023-08-12T03:23:16;19.80;99.90
1355;DHT22;671;48.972;9.276;2023-08-12T03:25:43;19.80;99.90
1355;DHT22;671;48.972;9.276;2023-08-12T03:28:09;19.80;99.90
1355;DHT22;671;48.972;9.276;2023-08-12T03:30:36;19.80;99.90
1355;DHT22;671;48.972;9.276;2023-08-12T03:33:02;19.80;99.90
1355;DHT22;671;48.972;9.276;2023-08-12T03:35:29;19.80;99.90
1355;DHT22;671;48.972;9.276;2023-08-12T03:37:55;19.90;99.90
1355;DHT22;671;48.972;9.276;2023-08-12T03:40:22;19.90;99.90
1355;DHT22;671;48.972;9.276;2023-08-12T03:42:48;19.90;99.90
1355;DHT22;671;48.972;9.276;2023-08-12T03:45:15;19.90;99.90
1355;DHT22;671;48.972;9.276;2023-08-12T03:47:41;19.90;99.90
1355;DHT22;671;48.972;9.276;2023-08-12T03:50:08;19.90;99.90
1355;DHT22;671;48.972;9.276;2023-08-12T03:52:34;19.90;99.90
1355;DHT22;671;48.972;9.276;2023-08-12T03:55:01;19.90;99.90
1355;DHT22;671;48.972;9.276;2023-08-12T03:57:27;19.90;99.90
1355;DHT22;671;48.972;9.276;2023-08-12T03:59:54;19.90;99.90
1355;DHT22;671;48.972;9.276;2023-08-12T04:02:20;19.90;99.90
1355;DHT22;671;48.972;9.276;2023-08-12T04:04:47;19.90;99.90
1355;DHT22;671;48.972;9.276;2023-08-12T04:07:13;19.90;99.90
1355;DHT22;671;48.972;9.276;2023-08-12T04:09:40;19.90;99.90
1355;DHT22;671;48.972;9.276;2023-08-12T04:12:06;19.90;99.90
1355;DHT22;671;48.972;9.276;2023-08-12T04:14:33;19.90;99.90
1355;DHT22;671;48.972;9.276;2023-08-12T04:16:59;19.90;99.90
1355;DHT22;671;48.972;9.276;2023-08-12T04:19:26;19.90;99.90
1355;DHT22;671;48.972;9.276;2023-08-12T04:21:52;19.90;99.90
1355;DHT22;671;48.972;9.276;2023-08-12T04:24:18;19.90;99.90
1355;DHT22;671;48.972;9.276;2023-08-12T04:26:45;19.90;99.90
1355;DHT22;671;48.972;9.276;2023-08-12T04:29:11;19.90;99.90
1355;DHT22;671;48.972;9.276;2023-08-12T04:31:38;19.90;99.90
1355;DHT22;671;48.972;9.276;2023-08-12T04:34:04;19.90;99.90
1355;DHT22;671;48.972;9.276;2023-08-12T04:36:31;19.90;99.90
1355;DHT22;671;48.972;9.276;2023-08-12T04:38:58;20.00;99.90
1355;DHT22;671;48.972;9.276;2023-08-12T04:41:24;20.00;99.90
1355;DHT22;671;48.972;9.276;2023-08-12T04:43:50;20.00;99.90
1355;DHT22;671;48.972;9.276;2023-08-12T04:46:17;20.00;99.90
1355;DHT22;671;48.972;9.276;2023-08-12T04:48:44;20.00;99.90
1355;DHT22;671;48.972;9.276;2023-08-12T04:51:11;20.10;99.90
1355;DHT22;671;48.972;9.276;2023-08-12T04:53:38;20.10;99.90
1355;DHT22;671;48.972;9.276;2023-08-12T04:56:04;20.10;99.90
1355;DHT22;671;48.972;9.276;2023-08-12T04:58:31;20.10;99.90
1355;DHT22;671;48.972;9.276;2023-08-12T05:00:58;20.20;99.90
1355;DHT22;671;48.972;9.276;2023-08-12T05:03:24;20.20;99.90
1355;DHT22;671;48.972;9.276;2023-08-12T05:05:51;20.30;99.90
1355;DHT22;671;48.972;9.276;2023-08-12T05:08:18;20.40;99.90
1355;DHT22;671;48.972;9.276;2023-08-12T05:10:47;20.40;99.90
1355;DHT22;671;48.972;9.276;2023-08-12T05:13:15;20.40;99.90
1355;DHT22;671;48.972;9.276;2023-08-12T05:15:41;20.40;99.90
1355;DHT22;671;48.972;9.276;2023-08-12T05:18:10;20.50;99.90
1355;DHT22;671;48.972;9.276;2023-08-12T05:20:37;20.50;99.90
1355;DHT22;671;48.972;9.276;2023-08-12T05:23:03;20.50;99.90
1355;DHT22;671;48.972;9.276;2023-08-12T05:25:30;20.60;99.90
1355;DHT22;671;48.972;9.276;2023-08-12T05:27:56;20.70;99.90
1355;DHT22;671;48.972;9.276;2023-08-12T05:30:23;20.80;99.90
1355;DHT22;671;48.972;9.276;2023-08-12T05:32:49;20.80;99.90
1355;DHT22;671;48.972;9.276;2023-08-12T05:35:16;20.90;99.90
1355;DHT22;671;48.972;9.276;2023-08-12T05:37:42;20.90;99.90
1355;DHT22;671;48.972;9.276;2023-08-12T05:40:09;20.90;99.90
1355;DHT22;671;48.972;9.276;2023-08-12T05:42:36;20.90;99.90
1355;DHT22;671;48.972;9.276;2023-08-12T05:45:03;21.00;99.90
1355;DHT22;671;48.972;9.276;2023-08-12T05:47:30;21.00;99.90
1355;DHT22;671;48.972;9.276;2023-08-12T05:49:58;21.00;99.90
1355;DHT22;671;48.972;9.276;2023-08-12T05:52:25;21.10;99.90
1355;DHT22;671;48.972;9.276;2023-08-12T05:54:51;21.30;99.90
1355;DHT22;671;48.972;9.276;2023-08-12T05:57:18;21.40;99.90
1355;DHT22;671;48.972;9.276;2023-08-12T05:59:45;21.40;99.90
1355;DHT22;671;48.972;9.276;2023-08-12T06:02:11;21.40;99.90
1355;DHT22;671;48.972;9.276;2023-08-12T06:04:38;21.40;99.90
1355;DHT22;671;48.972;9.276;2023-08-12T06:07:04;21.50;99.90
1355;DHT22;671;48.972;9.276;2023-08-12T06:09:30;21.70;99.90
1355;DHT22;671;48.972;9.276;2023-08-12T06:11:57;21.80;99.90
1355;DHT22;671;48.972;9.276;2023-08-12T06:14:23;21.90;99.90
1355;DHT22;671;48.972;9.276;2023-08-12T06:16:50;22.00;99.90
1355;DHT22;671;48.972;9.276;2023-08-12T06:19:16;22.00;99.90
1355;DHT22;671;48.972;9.276;2023-08-12T06:21:43;22.00;99.90
1355;DHT22;671;48.972;9.276;2023-08-12T06:24:09;22.00;99.90
1355;DHT22;671;48.972;9.276;2023-08-12T06:26:36;22.20;99.90
1355;DHT22;671;48.972;9.276;2023-08-12T06:29:03;22.20;99.90
1355;DHT22;671;48.972;9.276;2023-08-12T06:31:29;22.30;99.90
1355;DHT22;671;48.972;9.276;2023-08-12T06:33:56;22.40;99.90
1355;DHT22;671;48.972;9.276;2023-08-12T06:36:23;22.50;99.90
1355;DHT22;671;48.972;9.276;2023-08-12T06:38:49;22.60;99.90
1355;DHT22;671;48.972;9.276;2023-08-12T06:41:16;22.60;99.90
1355;DHT22;671;48.972;9.276;2023-08-12T06:43:42;22.60;99.90
1355;DHT22;671;48.972;9.276;2023-08-12T06:46:09;22.70;99.90
1355;DHT22;671;48.972;9.276;2023-08-12T06:48:35;22.70;99.90
1355;DHT22;671;48.972;9.276;2023-08-12T06:51:02;22.80;99.90
1355;DHT22;671;48.972;9.276;2023-08-12T06:53:33;23.00;99.90
1355;DHT22;671;48.972;9.276;2023-08-12T06:55:59;23.10;99.90
1355;DHT22;671;48.972;9.276;2023-08-12T06:58:26;23.30;99.90
1355;DHT22;671;48.972;9.276;2023-08-12T07:00:52;23.50;99.90
1355;DHT22;671;48.972;9.276;2023-08-12T07:03:19;23.50;99.90
1355;DHT22;671;48.972;9.276;2023-08-12T07:05:46;23.60;99.90
1355;DHT22;671;48.972;9.276;2023-08-12T07:08:12;23.60;99.90
1355;DHT22;671;48.972;9.276;2023-08-12T07:10:40;23.50;99.90
1355;DHT22;671;48.972;9.276;2023-08-12T07:13:07;23.60;99.90
1355;DHT22;671;48.972;9.276;2023-08-12T07:15:33;23.70;99.90
1355;DHT22;671;48.972;9.276;2023-08-12T07:18:00;23.80;99.90
1355;DHT22;671;48.972;9.276;2023-08-12T07:20:26;23.90;99.90
1355;DHT22;671;48.972;9.276;2023-08-12T07:22:53;24.10;99.90
1355;DHT22;671;48.972;9.276;2023-08-12T07:25:19;24.30;99.90
1355;DHT22;671;48.972;9.276;2023-08-12T07:27:46;24.30;99.90
1355;DHT22;671;48.972;9.276;2023-08-12T07:30:12;24.30;99.90
1355;DHT22;671;48.972;9.276;2023-08-12T07:32:39;24.40;99.90
1355;DHT22;671;48.972;9.276;2023-08-12T07:35:05;24.40;99.90
1355;DHT22;671;48.972;9.276;2023-08-12T07:37:32;24.40;99.90
1355;DHT22;671;48.972;9.276;2023-08-12T07:39:59;24.70;99.90
1355;DHT22;671;48.972;9.276;2023-08-12T07:42:26;24.80;99.90
1355;DHT22;671;48.972;9.276;2023-08-12T07:44:52;24.90;99.90
1355;DHT22;671;48.972;9.276;2023-08-12T07:47:19;24.90;99.90
1355;DHT22;671;48.972;9.276;2023-08-12T07:49:45;24.80;99.90
1355;DHT22;671;48.972;9.276;2023-08-12T07:52:12;24.90;99.90
1355;DHT22;671;48.972;9.276;2023-08-12T07:54:38;25.00;99.90
1355;DHT22;671;48.972;9.276;2023-08-12T07:57:05;25.20;99.90
1355;DHT22;671;48.972;9.276;2023-08-12T07:59:31;25.30;99.90
1355;DHT22;671;48.972;9.276;2023-08-12T08:01:58;25.50;99.90
1355;DHT22;671;48.972;9.276;2023-08-12T08:04:24;25.80;99.90
1355;DHT22;671;48.972;9.276;2023-08-12T08:06:51;26.00;99.90
1355;DHT22;671;48.972;9.276;2023-08-12T08:09:17;26.30;99.90
1355;DHT22;671;48.972;9.276;2023-08-12T08:11:44;26.50;99.90
1355;DHT22;671;48.972;9.276;2023-08-12T08:14:10;26.50;99.90
1355;DHT22;671;48.972;9.276;2023-08-12T08:16:37;26.70;99.90
1355;DHT22;671;48.972;9.276;2023-08-12T08:19:06;26.80;99.90
1355;DHT22;671;48.972;9.276;2023-08-12T08:21:32;26.90;99.90
1355;DHT22;671;48.972;9.276;2023-08-12T08:23:59;27.10;99.90
1355;DHT22;671;48.972;9.276;2023-08-12T08:26:25;27.10;99.90
1355;DHT22;671;48.972;9.276;2023-08-12T08:28:53;27.20;99.90
1355;DHT22;671;48.972;9.276;2023-08-12T08:31:19;27.40;99.90
1355;DHT22;671;48.972;9.276;2023-08-12T08:33:46;27.60;99.90
1355;DHT22;671;48.972;9.276;2023-08-12T08:36:12;27.70;99.90
1355;DHT22;671;48.972;9.276;2023-08-12T08:38:38;27.70;99.90
1355;DHT22;671;48.972;9.276;2023-08-12T08:41:05;27.70;99.90
1355;DHT22;671;48.972;9.276;2023-08-12T08:43:35;27.90;99.90
1355;DHT22;671;48.972;9.276;2023-08-12T08:46:03;28.00;99.90
1355;DHT22;671;48.972;9.276;2023-08-12T08:48:31;28.10;99.90
1355;DHT22;671;48.972;9.276;2023-08-12T08:51:00;28.10;99.90
1355;DHT22;671;48.972;9.276;2023-08-12T08:53:27;28.10;99.90
1355;DHT22;671;48.972;9.276;2023-08-12T08:55:53;28.20;99.90
1355;DHT22;671;48.972;9.276;2023-08-12T08:58:21;28.40;99.90
1355;DHT22;671;48.972;9.276;2023-08-12T09:00:48;28.50;99.90
1355;DHT22;671;48.972;9.276;2023-08-12T09:03:14;28.60;99.90
1355;DHT22;671;48.972;9.276;2023-08-12T09:05:41;28.70;99.90
1355;DHT22;671;48.972;9.276;2023-08-12T09:08:09;28.80;99.90
1355;DHT22;671;48.972;9.276;2023-08-12T09:10:39;28.90;99.90
1355;DHT22;671;48.972;9.276;2023-08-12T09:13:08;28.90;99.90
1355;DHT22;671;48.972;9.276;2023-08-12T09:15:35;29.10;99.90
1355;DHT22;671;48.972;9.276;2023-08-12T09:18:05;29.10;99.90
1355;DHT22;671;48.972;9.276;2023-08-12T09:20:33;29.10;99.90
1355;DHT22;671;48.972;9.276;2023-08-12T09:23:00;29.20;99.90
1355;DHT22;671;48.972;9.276;2023-08-12T09:25:27;29.00;99.90
1355;DHT22;671;48.972;9.276;2023-08-12T09:27:58;28.80;99.90
1355;DHT22;671;48.972;9.276;2023-08-12T09:30:28;28.90;99.90
1355;DHT22;671;48.972;9.276;2023-08-12T09:33:03;29.00;99.90
1355;DHT22;671;48.972;9.276;2023-08-12T09:35:37;29.00;99.90
1355;DHT22;671;48.972;9.276;2023-08-12T09:38:06;29.00;99.90
1355;DHT22;671;48.972;9.276;2023-08-12T09:40:35;29.10;99.90
1355;DHT22;671;48.972;9.276;2023-08-12T09:43:02;29.00;99.90
1355;DHT22;671;48.972;9.276;2023-08-12T09:45:29;29.00;99.90
1355;DHT22;671;48.972;9.276;2023-08-12T09:47:56;29.10;99.90
1355;DHT22;671;48.972;9.276;2023-08-12T09:50:25;29.10;99.90
1355;DHT22;671;48.972;9.276;2023-08-12T09:52:53;29.20;99.90
1355;DHT22;671;48.972;9.276;2023-08-12T09:55:22;29.10;99.90
1355;DHT22;671;48.972;9.276;2023-08-12T09:57:51;29.20;99.90
1355;DHT22;671;48.972;9.276;2023-08-12T10:00:22;29.20;99.90
1355;DHT22;671;48.972;9.276;2023-08-12T10:02:50;29.20;99.90
1355;DHT22;671;48.972;9.276;2023-08-12T10:05:27;29.30;99.90
1355;DHT22;671;48.972;9.276;2023-08-12T10:07:54;29.40;99.90
1355;DHT22;671;48.972;9.276;2023-08-12T10:10:21;29.50;99.90
1355;DHT22;671;48.972;9.276;2023-08-12T10:12:51;29.60;99.90
1355;DHT22;671;48.972;9.276;2023-08-12T10:15:19;29.70;99.90
1355;DHT22;671;48.972;9.276;2023-08-12T10:17:46;29.80;99.90
1355;DHT22;671;48.972;9.276;2023-08-12T10:20:19;29.90;99.90
1355;DHT22;671;48.972;9.276;2023-08-12T10:22:46;29.90;99.90
1355;DHT22;671;48.972;9.276;2023-08-12T10:25:14;30.00;99.90
1355;DHT22;671;48.972;9.276;2023-08-12T10:27:41;30.20;99.90
1355;DHT22;671;48.972;9.276;2023-08-12T10:30:08;30.60;99.90
1355;DHT22;671;48.972;9.276;2023-08-12T10:32:36;30.60;99.90
1355;DHT22;671;48.972;9.276;2023-08-12T10:35:03;30.70;99.90
1355;DHT22;671;48.972;9.276;2023-08-12T10:37:32;30.70;99.90
1355;DHT22;671;48.972;9.276;2023-08-12T10:40:03;30.90;99.90
1355;DHT22;671;48.972;9.276;2023-08-12T10:42:59;30.90;99.90
1355;DHT22;671;48.972;9.276;2023-08-12T10:45:41;30.80;99.90
1355;DHT22;671;48.972;9.276;2023-08-12T10:50:35;30.70;99.90
1355;DHT22;671;48.972;9.276;2023-08-12T10:53:25;30.70;99.90
1355;DHT22;671;48.972;9.276;2023-08-12T10:55:56;30.80;99.90
1355;DHT22;671;48.972;9.276;2023-08-12T10:58:28;31.00;99.90
1355;DHT22;671;48.972;9.276;2023-08-12T11:00:56;31.10;99.90
1355;DHT22;671;48.972;9.276;2023-08-12T11:03:23;30.90;99.90
1355;DHT22;671;48.972;9.276;2023-08-12T11:05:50;30.90;99.90
1355;DHT22;671;48.972;9.276;2023-08-12T11:08:17;31.10;99.90
1355;DHT22;671;48.972;9.276;2023-08-12T11:10:44;31.10;99.90
1355;DHT22;671;48.972;9.276;2023-08-12T11:13:10;31.10;99.90
1355;DHT22;671;48.972;9.276;2023-08-12T11:15:41;31.20;99.90
1355;DHT22;671;48.972;9.276;2023-08-12T11:18:10;31.30;99.90
1355;DHT22;671;48.972;9.276;2023-08-12T11:20:38;31.40;99.90
1355;DHT22;671;48.972;9.276;2023-08-12T11:23:07;31.50;99.90
1355;DHT22;671;48.972;9.276;2023-08-12T11:25:36;31.70;99.90
1355;DHT22;671;48.972;9.276;2023-08-12T11:28:06;31.80;99.90
1355;DHT22;671;48.972;9.276;2023-08-12T11:30:34;31.90;99.90
1355;DHT22;671;48.972;9.276;2023-08-12T11:33:01;31.90;99.90
1355;DHT22;671;48.972;9.276;2023-08-12T11:35:28;32.00;99.90
1355;DHT22;671;48.972;9.276;2023-08-12T11:37:57;32.10;99.90
1355;DHT22;671;48.972;9.276;2023-08-12T11:40:25;32.00;99.90
1355;DHT22;671;48.972;9.276;2023-08-12T11:42:52;31.80;99.90
1355;DHT22;671;48.972;9.276;2023-08-12T11:45:21;31.70;99.90
1355;DHT22;671;48.972;9.276;2023-08-12T11:47:48;31.50;99.90
1355;DHT22;671;48.972;9.276;2023-08-12T11:50:27;31.40;99.90
1355;DHT22;671;48.972;9.276;2023-08-12T11:52:55;31.30;99.90
1355;DHT22;671;48.972;9.276;2023-08-12T11:55:22;31.10;99.90
1355;DHT22;671;48.972;9.276;2023-08-12T11:57:50;30.90;99.90
1355;DHT22;671;48.972;9.276;2023-08-12T12:00:17;30.70;99.90
1355;DHT22;671;48.972;9.276;2023-08-12T12:02:49;30.40;99.90
1355;DHT22;671;48.972;9.276;2023-08-12T12:05:17;30.10;99.90
1355;DHT22;671;48.972;9.276;2023-08-12T12:07:44;29.70;99.90
1355;DHT22;671;48.972;9.276;2023-08-12T12:10:17;28.90;99.90
1355;DHT22;671;48.972;9.276;2023-08-12T12:12:44;28.00;99.90
1355;DHT22;671;48.972;9.276;2023-08-12T12:15:13;27.30;99.90
1355;DHT22;671;48.972;9.276;2023-08-12T12:17:41;26.80;99.90
1355;DHT22;671;48.972;9.276;2023-08-12T12:20:08;26.50;99.90
1355;DHT22;671;48.972;9.276;2023-08-12T12:22:38;26.20;99.90
1355;DHT22;671;48.972;9.276;2023-08-12T12:25:09;26.20;99.90
1355;DHT22;671;48.972;9.276;2023-08-12T12:27:37;26.10;99.90
1355;DHT22;671;48.972;9.276;2023-08-12T12:30:08;26.00;99.90
1355;DHT22;671;48.972;9.276;2023-08-12T12:32:35;25.90;99.90
1355;DHT22;671;48.972;9.276;2023-08-12T12:35:01;25.80;99.90
1355;DHT22;671;48.972;9.276;2023-08-12T12:37:30;25.70;99.90
1355;DHT22;671;48.972;9.276;2023-08-12T12:39:56;25.70;99.90
1355;DHT22;671;48.972;9.276;2023-08-12T12:42:23;25.70;99.90
1355;DHT22;671;48.972;9.276;2023-08-12T12:44:49;25.60;99.90
1355;DHT22;671;48.972;9.276;2023-08-12T12:47:17;25.30;99.90
1355;DHT22;671;48.972;9.276;2023-08-12T12:49:45;25.20;99.90
1355;DHT22;671;48.972;9.276;2023-08-12T12:52:12;25.00;99.90
1355;DHT22;671;48.972;9.276;2023-08-12T12:54:38;24.80;99.90
1355;DHT22;671;48.972;9.276;2023-08-12T12:57:05;24.70;99.90
1355;DHT22;671;48.972;9.276;2023-08-12T12:59:32;24.50;99.90
1355;DHT22;671;48.972;9.276;2023-08-12T13:01:59;24.50;99.90
1355;DHT22;671;48.972;9.276;2023-08-12T13:04:25;24.50;99.90
1355;DHT22;671;48.972;9.276;2023-08-12T13:06:52;24.50;99.90
1355;DHT22;671;48.972;9.276;2023-08-12T13:09:18;24.50;99.90
1355;DHT22;671;48.972;9.276;2023-08-12T13:11:45;24.60;99.90
1355;DHT22;671;48.972;9.276;2023-08-12T13:14:11;24.70;99.90
1355;DHT22;671;48.972;9.276;2023-08-12T13:16:38;24.70;99.90
1355;DHT22;671;48.972;9.276;2023-08-12T13:19:04;24.80;99.90
1355;DHT22;671;48.972;9.276;2023-08-12T13:21:31;25.00;99.90
1355;DHT22;671;48.972;9.276;2023-08-12T13:23:58;25.10;99.90
1355;DHT22;671;48.972;9.276;2023-08-12T13:26:25;25.20;99.90
1355;DHT22;671;48.972;9.276;2023-08-12T13:28:53;25.40;99.90
1355;DHT22;671;48.972;9.276;2023-08-12T13:31:19;25.50;99.90
1355;DHT22;671;48.972;9.276;2023-08-12T13:33:46;25.60;99.90
1355;DHT22;671;48.972;9.276;2023-08-12T13:36:12;25.70;99.90
1355;DHT22;671;48.972;9.276;2023-08-12T13:38:39;25.80;99.90
1355;DHT22;671;48.972;9.276;2023-08-12T13:41:05;25.90;99.90
1355;DHT22;671;48.972;9.276;2023-08-12T13:43:32;26.00;99.90
1355;DHT22;671;48.972;9.276;2023-08-12T13:46:00;26.00;99.90
1355;DHT22;671;48.972;9.276;2023-08-12T13:48:27;26.10;99.90
1355;DHT22;671;48.972;9.276;2023-08-12T13:50:54;26.00;99.90
1355;DHT22;671;48.972;9.276;2023-08-12T13:53:21;26.10;99.90
1355;DHT22;671;48.972;9.276;2023-08-12T13:55:47;26.20;99.90
1355;DHT22;671;48.972;9.276;2023-08-12T13:58:14;26.30;99.90
1355;DHT22;671;48.972;9.276;2023-08-12T14:00:40;26.40;99.90
1355;DHT22;671;48.972;9.276;2023-08-12T14:03:07;26.50;99.90
1355;DHT22;671;48.972;9.276;2023-08-12T14:05:33;26.70;99.90
1355;DHT22;671;48.972;9.276;2023-08-12T14:08:00;26.90;99.90
1355;DHT22;671;48.972;9.276;2023-08-12T14:10:26;27.10;99.90
1355;DHT22;671;48.972;9.276;2023-08-12T14:12:53;27.40;99.90
1355;DHT22;671;48.972;9.276;2023-08-12T14:15:20;27.40;99.90
1355;DHT22;671;48.972;9.276;2023-08-12T14:17:46;27.50;99.90
1355;DHT22;671;48.972;9.276;2023-08-12T14:20:13;27.70;99.90
1355;DHT22;671;48.972;9.276;2023-08-12T14:22:41;27.80;99.90
1355;DHT22;671;48.972;9.276;2023-08-12T14:25:10;27.90;99.90
1355;DHT22;671;48.972;9.276;2023-08-12T14:27:37;27.90;99.90
1355;DHT22;671;48.972;9.276;2023-08-12T14:30:04;28.00;99.90
1355;DHT22;671;48.972;9.276;2023-08-12T14:32:30;27.90;99.90
1355;DHT22;671;48.972;9.276;2023-08-12T14:34:57;28.00;99.90
1355;DHT22;671;48.972;9.276;2023-08-12T14:37:23;27.90;99.90
1355;DHT22;671;48.972;9.276;2023-08-12T14:39:50;27.90;99.90
1355;DHT22;671;48.972;9.276;2023-08-12T14:42:16;27.90;99.90
1355;DHT22;671;48.972;9.276;2023-08-12T14:44:43;28.00;99.90
1355;DHT22;671;48.972;9.276;2023-08-12T14:47:10;27.90;99.90
1355;DHT22;671;48.972;9.276;2023-08-12T14:49:36;27.90;99.90
1355;DHT22;671;48.972;9.276;2023-08-12T14:52:03;27.90;99.90
1355;DHT22;671;48.972;9.276;2023-08-12T14:54:29;27.90;99.90
1355;DHT22;671;48.972;9.276;2023-08-12T14:56:56;27.90;99.90
1355;DHT22;671;48.972;9.276;2023-08-12T14:59:22;27.90;99.90
1355;DHT22;671;48.972;9.276;2023-08-12T15:01:49;27.90;99.90
1355;DHT22;671;48.972;9.276;2023-08-12T15:04:15;27.90;99.90
1355;DHT22;671;48.972;9.276;2023-08-12T15:06:42;28.00;99.90
1355;DHT22;671;48.972;9.276;2023-08-12T15:09:09;27.90;99.90
1355;DHT22;671;48.972;9.276;2023-08-12T15:11:35;27.80;99.90
1355;DHT22;671;48.972;9.276;2023-08-12T15:14:02;27.70;99.90
1355;DHT22;671;48.972;9.276;2023-08-12T15:16:29;27.50;99.90
1355;DHT22;671;48.972;9.276;2023-08-12T15:18:55;27.30;99.90
1355;DHT22;671;48.972;9.276;2023-08-12T15:21:22;27.20;99.90
1355;DHT22;671;48.972;9.276;2023-08-12T15:23:48;27.00;99.90
1355;DHT22;671;48.972;9.276;2023-08-12T15:26:15;26.90;99.90
1355;DHT22;671;48.972;9.276;2023-08-12T15:28:41;26.80;99.90
1355;DHT22;671;48.972;9.276;2023-08-12T15:31:08;26.70;99.90
1355;DHT22;671;48.972;9.276;2023-08-12T15:33:34;26.70;99.90
1355;DHT22;671;48.972;9.276;2023-08-12T15:36:01;26.60;99.90
1355;DHT22;671;48.972;9.276;2023-08-12T15:38:27;26.50;99.90
1355;DHT22;671;48.972;9.276;2023-08-12T15:40:54;26.40;99.90
1355;DHT22;671;48.972;9.276;2023-08-12T15:43:20;26.30;99.90
1355;DHT22;671;48.972;9.276;2023-08-12T15:45:47;26.10;99.90
1355;DHT22;671;48.972;9.276;2023-08-12T15:48:13;26.00;99.90
1355;DHT22;671;48.972;9.276;2023-08-12T15:50:43;25.90;99.90
1355;DHT22;671;48.972;9.276;2023-08-12T15:53:10;25.80;99.90
1355;DHT22;671;48.972;9.276;2023-08-12T15:55:36;25.70;99.90
1355;DHT22;671;48.972;9.276;2023-08-12T15:58:03;25.70;99.90
1355;DHT22;671;48.972;9.276;2023-08-12T16:00:29;25.60;99.90
1355;DHT22;671;48.972;9.276;2023-08-12T16:02:56;25.50;99.90
1355;DHT22;671;48.972;9.276;2023-08-12T16:05:22;25.30;99.90
1355;DHT22;671;48.972;9.276;2023-08-12T16:07:49;25.30;99.90
1355;DHT22;671;48.972;9.276;2023-08-12T16:10:15;25.20;99.90
1355;DHT22;671;48.972;9.276;2023-08-12T16:12:42;25.10;99.90
1355;DHT22;671;48.972;9.276;2023-08-12T16:15:09;25.00;99.90
1355;DHT22;671;48.972;9.276;2023-08-12T16:17:35;24.90;99.90
1355;DHT22;671;48.972;9.276;2023-08-12T16:20:02;24.70;99.90